Genoa, Wisconsin
Current Conditions -  °F | °C
As of 10:14 AM on Sunday 21 Dec 2014 (Local Time) from KY51 Reporting Station
Overcast Overcast  
Wind Chill: 25°   Ceiling: 300
Heat Index: 33°   Visibility: 0.5mi
Dew Point: 33°   Wind: 12mph
Humidity: 100%   Direction: 170°S
Pressure: 29.99"   Gusts: 21mph
Location:  43.58°N, 91.22°W
Report Text: KY51 211614Z AUTO 17010G18KT 1/2SM OVC003 01/01 A2999 RMK AO1 T00080008
Loading
Personal Weather Stations






























Interactive Weather Map New forecast layout! Learn more

10-Day Weather Forecast

Advertisements
Track Severe Weather on mobile